createdAt,value
2023-05-02T00:02:15.996Z,8.80
2023-05-02T00:04:42.913Z,7.80
2023-05-02T00:07:09.705Z,7.90
2023-05-02T00:09:36.643Z,7.90
2023-05-02T00:12:03.537Z,7.80
2023-05-02T00:14:30.252Z,7.90
2023-05-02T00:16:57.373Z,7.80
2023-05-02T00:19:24.165Z,7.80
2023-05-02T00:21:50.852Z,7.70
2023-05-02T00:24:18.028Z,7.70
2023-05-02T00:26:44.748Z,7.60
2023-05-02T00:29:11.430Z,7.60
2023-05-02T00:31:40.579Z,7.60
2023-05-02T00:34:07.333Z,7.50
2023-05-02T00:36:34.057Z,7.50
2023-05-02T00:39:00.957Z,7.40
2023-05-02T00:41:27.557Z,7.40
2023-05-02T00:43:54.197Z,7.40
2023-05-02T00:46:20.835Z,7.40
2023-05-02T00:48:47.539Z,7.40
2023-05-02T00:51:14.295Z,7.40
2023-05-02T00:53:41.890Z,7.50
2023-05-02T00:56:09.757Z,7.40
2023-05-02T00:58:38.512Z,7.50
2023-05-02T01:01:12.320Z,7.50
2023-05-02T01:03:39.630Z,7.50
2023-05-02T01:06:33.326Z,7.50
2023-05-02T01:09:03.014Z,7.50
2023-05-02T01:11:39.662Z,7.60
2023-05-02T01:14:08.837Z,7.60
2023-05-02T01:16:40.496Z,7.70
2023-05-02T01:19:12.559Z,7.70
2023-05-02T01:21:39.491Z,7.80
2023-05-02T01:24:11.003Z,7.80
2023-05-02T01:26:49.937Z,7.90
2023-05-02T01:29:17.732Z,7.90
2023-05-02T01:31:46.381Z,7.80
2023-05-02T01:34:13.404Z,7.90
2023-05-02T01:36:44.509Z,7.90
2023-05-02T01:39:13.502Z,7.90
2023-05-02T01:41:40.612Z,7.80
2023-05-02T01:44:08.382Z,7.80
2023-05-02T01:46:36.830Z,7.80
2023-05-02T01:49:04.930Z,7.90
2023-05-02T01:51:33.170Z,7.90
2023-05-02T01:54:01.633Z,7.80
2023-05-02T01:56:32.084Z,7.80
2023-05-02T01:58:59.419Z,7.70
2023-05-02T02:01:27.713Z,7.70
2023-05-02T02:03:58.171Z,7.60
2023-05-02T02:06:25.561Z,7.60
2023-05-02T02:08:52.313Z,7.60
2023-05-02T02:11:24.800Z,7.60
2023-05-02T02:13:55.337Z,7.60
2023-05-02T02:16:25.632Z,7.70
2023-05-02T02:18:55.044Z,7.60
2023-05-02T02:21:22.777Z,7.60
2023-05-02T02:23:51.083Z,7.50
2023-05-02T02:26:19.209Z,7.40
2023-05-02T02:28:46.053Z,7.30
2023-05-02T02:31:12.946Z,7.20
2023-05-02T02:33:40.003Z,7.30
2023-05-02T02:36:15.306Z,7.30
2023-05-02T02:39:00.827Z,7.30
2023-05-02T02:41:28.682Z,7.30
2023-05-02T02:43:55.355Z,7.10
2023-05-02T02:46:22.079Z,7.00
2023-05-02T02:49:09.386Z,6.80
2023-05-02T02:51:44.122Z,6.70
2023-05-02T02:54:25.729Z,6.60
2023-05-02T02:56:58.893Z,6.50
2023-05-02T02:59:36.634Z,7.80
2023-05-02T03:02:08.687Z,6.50
2023-05-02T03:04:38.100Z,6.60
2023-05-02T03:07:04.710Z,6.80
2023-05-02T03:09:44.590Z,6.90
2023-05-02T03:12:11.444Z,6.80
2023-05-02T03:14:38.675Z,6.70
2023-05-02T03:17:06.113Z,6.50
2023-05-02T03:19:32.757Z,6.40
2023-05-02T03:21:59.387Z,6.30
2023-05-02T03:24:27.805Z,7.20
2023-05-02T03:26:55.058Z,6.40
2023-05-02T03:29:22.059Z,6.40
2023-05-02T03:31:48.889Z,6.50
2023-05-02T03:34:15.649Z,6.60
2023-05-02T03:36:42.618Z,6.60
2023-05-02T03:39:09.436Z,6.60
2023-05-02T03:41:36.369Z,6.70
2023-05-02T03:44:03.854Z,6.60
2023-05-02T03:46:30.825Z,6.60
2023-05-02T03:48:58.049Z,6.60
2023-05-02T03:51:24.704Z,6.70
2023-05-02T03:53:51.618Z,8.40
2023-05-02T03:56:20.355Z,6.80
2023-05-02T03:58:47.963Z,6.90
2023-05-02T04:01:15.665Z,6.90
2023-05-02T04:03:43.031Z,10.00
2023-05-02T04:06:09.909Z,7.20
2023-05-02T04:08:37.225Z,7.30
2023-05-02T04:11:03.952Z,7.40
2023-05-02T04:13:30.659Z,7.50
2023-05-02T04:15:57.300Z,7.60
2023-05-02T04:18:24.258Z,7.70
2023-05-02T04:20:50.997Z,7.70
2023-05-02T04:23:17.739Z,7.70
2023-05-02T04:25:50.982Z,7.80
2023-05-02T04:28:17.629Z,7.80
2023-05-02T04:30:44.371Z,7.90
2023-05-02T04:33:12.036Z,7.90
2023-05-02T04:35:41.808Z,8.00
2023-05-02T04:38:08.717Z,8.10
2023-05-02T04:40:35.778Z,8.20
2023-05-02T04:43:02.992Z,8.30
2023-05-02T04:45:29.607Z,8.40
2023-05-02T04:47:56.234Z,8.40
2023-05-02T04:50:22.864Z,8.40
2023-05-02T04:52:49.603Z,8.50
2023-05-02T04:55:16.276Z,8.60
2023-05-02T04:57:42.871Z,8.60
2023-05-02T05:00:09.942Z,12.00
2023-05-02T05:02:37.047Z,8.60
2023-05-02T05:05:04.675Z,11.50
2023-05-02T05:07:31.511Z,8.60
2023-05-02T05:09:58.562Z,8.70
2023-05-02T05:12:25.370Z,8.80
2023-05-02T05:14:52.002Z,8.80
2023-05-02T05:17:18.620Z,8.70
2023-05-02T05:19:45.216Z,8.70
2023-05-02T05:22:11.802Z,8.60
2023-05-02T05:24:39.301Z,5.40
2023-05-02T05:27:06.230Z,9.90
2023-05-02T05:29:33.233Z,8.70
2023-05-02T05:32:00.303Z,8.60
2023-05-02T05:34:27.174Z,8.70
2023-05-02T05:36:53.839Z,8.60
2023-05-02T05:39:20.435Z,9.80
2023-05-02T05:41:47.121Z,8.50
2023-05-02T05:44:13.844Z,8.50
2023-05-02T05:46:40.893Z,8.50
2023-05-02T05:49:07.646Z,8.60
2023-05-02T05:51:35.179Z,8.50
2023-05-02T05:54:02.464Z,11.40
2023-05-02T05:56:29.194Z,8.70
2023-05-02T05:58:55.876Z,11.50
2023-05-02T06:01:22.454Z,8.80
2023-05-02T06:03:49.380Z,8.90
2023-05-02T06:06:16.057Z,9.00
2023-05-02T06:08:42.673Z,9.00
2023-05-02T06:11:11.006Z,9.00
2023-05-02T06:13:37.908Z,9.00
2023-05-02T06:16:06.002Z,9.10
2023-05-02T06:18:32.853Z,9.10
2023-05-02T06:21:03.677Z,9.10
2023-05-02T06:23:30.560Z,9.10
2023-05-02T06:25:59.225Z,9.10
2023-05-02T06:28:26.816Z,9.20
2023-05-02T06:31:03.910Z,11.70
2023-05-02T06:33:31.591Z,9.30
2023-05-02T06:36:00.004Z,9.40
2023-05-02T06:38:28.580Z,9.50
2023-05-02T06:40:55.236Z,9.50
2023-05-02T06:43:21.990Z,9.60
2023-05-02T06:45:48.695Z,9.70
2023-05-02T06:48:15.620Z,9.80
2023-05-02T06:50:42.560Z,9.90
2023-05-02T06:53:09.268Z,10.00
2023-05-02T06:55:36.196Z,10.10
2023-05-02T06:58:03.522Z,12.60
2023-05-02T07:00:30.286Z,10.20
2023-05-02T07:02:57.261Z,10.20
2023-05-02T07:05:23.940Z,10.30
2023-05-02T07:07:50.669Z,13.60
2023-05-02T07:10:17.628Z,10.40
2023-05-02T07:12:44.376Z,10.50
2023-05-02T07:15:11.115Z,13.50
2023-05-02T07:17:38.063Z,10.60
2023-05-02T07:20:05.360Z,10.70
2023-05-02T07:22:32.240Z,10.70
2023-05-02T07:24:59.652Z,10.70
2023-05-02T07:27:26.436Z,13.20
2023-05-02T07:29:53.213Z,13.80
2023-05-02T07:32:22.043Z,10.70
2023-05-02T07:34:49.011Z,12.70
2023-05-02T07:37:15.785Z,10.70
2023-05-02T07:39:42.658Z,10.60
2023-05-02T07:42:09.488Z,13.50
2023-05-02T07:44:36.942Z,10.80
2023-05-02T07:47:03.555Z,13.50
2023-05-02T07:49:31.448Z,12.50
2023-05-02T07:51:58.158Z,12.20
2023-05-02T07:54:27.916Z,13.50
2023-05-02T07:56:57.533Z,10.90
2023-05-02T07:59:24.124Z,10.80
2023-05-02T08:01:50.884Z,10.90
2023-05-02T08:04:17.714Z,10.80
2023-05-02T08:06:45.313Z,13.70
2023-05-02T08:09:12.097Z,10.90
2023-05-02T08:11:38.897Z,10.90
2023-05-02T08:14:05.734Z,11.10
2023-05-02T08:16:32.458Z,15.10
2023-05-02T08:18:59.126Z,15.30
2023-05-02T08:21:26.372Z,11.30
2023-05-02T08:23:57.794Z,14.60
2023-05-02T08:26:24.815Z,13.80
2023-05-02T08:28:51.714Z,12.10
2023-05-02T08:31:18.493Z,11.20
2023-05-02T08:33:45.624Z,11.20
2023-05-02T08:36:16.222Z,13.40
2023-05-02T08:38:43.929Z,11.40
2023-05-02T08:41:14.266Z,11.50
2023-05-02T08:43:41.004Z,11.60
2023-05-02T08:46:08.517Z,12.40
2023-05-02T08:48:36.478Z,13.80
2023-05-02T08:51:03.969Z,13.00
2023-05-02T08:53:37.871Z,12.10
2023-05-02T08:56:04.754Z,12.20
2023-05-02T08:58:31.447Z,12.30
2023-05-02T09:01:01.276Z,15.20
2023-05-02T09:03:34.740Z,12.50
2023-05-02T09:06:06.536Z,12.80
2023-05-02T09:08:34.549Z,13.00
2023-05-02T09:11:01.973Z,14.10
2023-05-02T09:13:28.723Z,16.40
2023-05-02T09:16:06.002Z,15.20
2023-05-02T09:18:37.468Z,13.00
2023-05-02T09:21:06.458Z,12.70
2023-05-02T09:23:40.372Z,12.50
2023-05-02T09:26:33.934Z,12.50
2023-05-02T09:29:01.686Z,12.40
2023-05-02T09:34:13.086Z,13.90
2023-05-02T09:36:40.697Z,12.60
2023-05-02T09:39:17.968Z,12.70
2023-05-02T09:41:45.570Z,12.80
2023-05-02T09:44:13.282Z,15.90
2023-05-02T09:46:44.087Z,16.00
2023-05-02T09:49:11.418Z,13.20
2023-05-02T09:51:38.314Z,13.30
2023-05-02T09:54:04.915Z,15.40
2023-05-02T09:56:31.950Z,14.90
2023-05-02T09:59:17.617Z,16.00
2023-05-02T10:01:44.375Z,13.50
2023-05-02T10:04:16.692Z,14.50
2023-05-02T10:06:44.334Z,13.60
2023-05-02T10:09:15.400Z,15.00
2023-05-02T10:11:45.067Z,16.70
2023-05-02T10:14:12.372Z,15.90
2023-05-02T10:16:43.317Z,16.60
2023-05-02T10:19:10.633Z,16.50
2023-05-02T10:21:40.223Z,16.30
2023-05-02T10:24:07.150Z,13.70
2023-05-02T10:26:34.904Z,15.50
2023-05-02T10:29:02.037Z,16.60
2023-05-02T10:31:32.965Z,16.50
2023-05-02T10:34:00.300Z,14.60
2023-05-02T10:36:27.103Z,14.40
2023-05-02T10:38:54.440Z,16.30
2023-05-02T10:41:22.862Z,14.60
2023-05-02T10:43:49.965Z,14.60
2023-05-02T10:46:32.176Z,16.20
2023-05-02T10:49:06.434Z,14.80
2023-05-02T10:51:33.983Z,14.70
2023-05-02T10:54:19.376Z,15.90
2023-05-02T10:57:04.463Z,14.70
2023-05-02T10:59:32.277Z,14.70
2023-05-02T11:01:59.263Z,15.40
2023-05-02T11:04:26.346Z,15.40
2023-05-02T11:07:13.285Z,14.30
2023-05-02T11:09:39.954Z,14.50
2023-05-02T11:12:07.365Z,16.50
2023-05-02T11:14:34.049Z,16.40
2023-05-02T11:17:07.034Z,15.20
2023-05-02T11:19:46.031Z,15.00
2023-05-02T11:22:23.966Z,15.20
2023-05-02T11:24:51.189Z,15.20
2023-05-02T11:27:39.389Z,15.40
2023-05-02T11:30:09.928Z,15.30
2023-05-02T11:32:49.857Z,15.20
2023-05-02T11:35:20.764Z,15.20
2023-05-02T11:37:57.568Z,15.10
2023-05-02T11:40:25.293Z,14.90
2023-05-02T11:42:51.934Z,14.70
2023-05-02T11:45:18.899Z,17.20
2023-05-02T11:47:46.661Z,15.10
2023-05-02T11:50:13.532Z,15.60
2023-05-02T11:52:41.865Z,14.60
2023-05-02T11:55:11.740Z,16.30
2023-05-02T11:57:39.006Z,14.70
2023-05-02T12:00:06.529Z,14.80
2023-05-02T12:02:43.533Z,15.00
2023-05-02T12:05:11.083Z,15.10
2023-05-02T12:07:41.730Z,16.80
2023-05-02T12:10:09.085Z,16.50
2023-05-02T12:12:36.374Z,15.40
2023-05-02T12:15:10.081Z,17.40
2023-05-02T12:17:44.270Z,15.40
2023-05-02T12:20:11.885Z,15.50
2023-05-02T12:22:38.879Z,15.60
2023-05-02T12:25:06.242Z,15.40
2023-05-02T12:27:36.411Z,15.40
2023-05-02T12:30:03.592Z,15.30
2023-05-02T12:32:31.612Z,15.30
2023-05-02T12:34:58.744Z,16.90
2023-05-02T12:37:26.256Z,15.60
2023-05-02T12:39:53.848Z,15.90
2023-05-02T12:42:21.604Z,15.80
2023-05-02T12:44:49.368Z,17.20
2023-05-02T12:47:16.900Z,15.40
2023-05-02T12:49:53.471Z,15.30
2023-05-02T12:52:20.992Z,15.30
2023-05-02T12:54:48.386Z,16.30
2023-05-02T12:57:22.490Z,16.60
2023-05-02T12:59:51.623Z,15.10
2023-05-02T13:02:18.215Z,16.80
2023-05-02T13:04:44.885Z,15.10
2023-05-02T13:07:11.533Z,17.20
2023-05-02T13:09:38.223Z,16.40
2023-05-02T13:12:05.978Z,16.70
2023-05-02T13:14:32.663Z,15.30
2023-05-02T13:16:59.686Z,16.80
2023-05-02T13:19:29.431Z,17.80
2023-05-02T13:21:56.030Z,16.40
2023-05-02T13:24:22.718Z,16.20
2023-05-02T13:26:49.627Z,17.10
2023-05-02T13:29:16.280Z,16.70
2023-05-02T13:31:43.003Z,16.50
2023-05-02T13:34:09.921Z,15.50
2023-05-02T13:36:40.690Z,15.30
2023-05-02T13:39:07.330Z,16.10
2023-05-02T13:41:34.355Z,15.10
2023-05-02T13:44:01.121Z,17.20
2023-05-02T13:46:27.800Z,16.70
2023-05-02T13:48:54.669Z,17.50
2023-05-02T13:51:21.585Z,17.50
2023-05-02T13:53:48.198Z,15.60
2023-05-02T13:56:15.014Z,16.40
2023-05-02T13:58:42.308Z,17.50
2023-05-02T14:01:08.912Z,17.10
2023-05-02T14:03:36.127Z,15.50
2023-05-02T14:06:03.152Z,16.90
2023-05-02T14:08:30.078Z,15.50
2023-05-02T14:10:56.799Z,15.70
2023-05-02T14:13:24.585Z,17.00
2023-05-02T14:15:51.493Z,16.10
2023-05-02T14:18:18.350Z,16.70
2023-05-02T14:20:45.220Z,15.60
2023-05-02T14:23:12.355Z,16.90
2023-05-02T14:25:38.962Z,19.60
2023-05-02T14:28:06.064Z,18.10
2023-05-02T14:30:33.022Z,15.50
2023-05-02T14:32:59.841Z,17.50
2023-05-02T14:35:26.523Z,15.00
2023-05-02T14:37:53.151Z,18.70
2023-05-02T14:40:19.948Z,17.70
2023-05-02T14:42:46.964Z,16.40
2023-05-02T14:45:13.834Z,16.70
2023-05-02T14:47:40.525Z,16.50
2023-05-02T14:50:07.548Z,17.50
2023-05-02T14:52:34.293Z,15.80
2023-05-02T14:55:01.466Z,17.80
2023-05-02T14:57:28.340Z,16.00
2023-05-02T14:59:55.077Z,17.20
2023-05-02T15:02:22.069Z,17.60
2023-05-02T15:04:48.975Z,16.60
2023-05-02T15:07:16.345Z,15.90
2023-05-02T15:09:43.320Z,18.90
2023-05-02T15:12:10.142Z,16.00
2023-05-02T15:14:36.828Z,18.30
2023-05-02T15:17:03.632Z,15.50
2023-05-02T15:19:30.657Z,17.20
2023-05-02T15:21:57.900Z,15.80
2023-05-02T15:24:24.713Z,15.20
2023-05-02T15:26:51.634Z,15.70
2023-05-02T15:29:18.327Z,15.20
2023-05-02T15:31:45.110Z,15.60
2023-05-02T15:34:11.817Z,17.60
2023-05-02T15:36:38.465Z,17.80
2023-05-02T15:39:05.157Z,17.80
2023-05-02T15:41:31.920Z,17.60
2023-05-02T15:43:58.689Z,14.90
2023-05-02T15:46:25.721Z,15.00
2023-05-02T15:48:52.559Z,16.40
2023-05-02T15:51:19.245Z,15.90
2023-05-02T15:53:49.793Z,15.20
2023-05-02T15:56:16.769Z,15.20
2023-05-02T15:58:43.570Z,15.20
2023-05-02T16:01:10.320Z,16.20
2023-05-02T16:03:37.280Z,15.30
2023-05-02T16:06:06.655Z,17.80
2023-05-02T16:08:33.415Z,15.10
2023-05-02T16:11:01.824Z,16.50
2023-05-02T16:13:28.576Z,16.60
2023-05-02T16:15:56.197Z,17.40
2023-05-02T16:18:28.582Z,16.50
2023-05-02T16:20:58.834Z,16.90
2023-05-02T16:23:26.186Z,16.60
2023-05-02T16:26:02.513Z,16.30
2023-05-02T16:28:29.407Z,15.50
2023-05-02T16:30:56.208Z,18.70
2023-05-02T16:33:23.234Z,16.00
2023-05-02T16:35:49.944Z,17.10
2023-05-02T16:38:16.784Z,15.40
2023-05-02T16:40:43.430Z,16.10
2023-05-02T16:43:10.019Z,17.00
2023-05-02T16:45:36.741Z,15.90
2023-05-02T16:48:04.495Z,16.00
2023-05-02T16:50:31.864Z,15.40
2023-05-02T16:52:58.478Z,17.20
2023-05-02T16:55:26.573Z,16.70
2023-05-02T16:57:53.270Z,15.30
2023-05-02T17:00:20.091Z,16.70
2023-05-02T17:02:46.970Z,15.20
2023-05-02T17:05:13.753Z,15.10
2023-05-02T17:07:40.452Z,15.80
2023-05-02T17:10:07.508Z,16.00
2023-05-02T17:12:34.143Z,14.80
2023-05-02T17:15:02.305Z,14.70
2023-05-02T17:17:31.003Z,15.20
2023-05-02T17:19:57.739Z,14.70
2023-05-02T17:22:24.467Z,15.10
2023-05-02T17:24:54.071Z,15.20
2023-05-02T17:27:20.861Z,15.40
2023-05-02T17:29:49.034Z,15.30
2023-05-02T17:32:16.011Z,14.80
2023-05-02T17:34:45.653Z,14.80
2023-05-02T17:37:12.499Z,14.80
2023-05-02T17:39:39.135Z,15.50
2023-05-02T17:42:06.157Z,14.60
2023-05-02T17:44:36.332Z,14.50
2023-05-02T17:47:03.430Z,15.10
2023-05-02T17:49:30.133Z,14.40
2023-05-02T17:51:56.882Z,14.80
2023-05-02T17:54:23.532Z,15.20
2023-05-02T17:56:50.716Z,15.20
2023-05-02T17:59:18.889Z,16.20
2023-05-02T18:01:45.737Z,16.90
2023-05-02T18:04:15.085Z,14.70
2023-05-02T18:06:42.040Z,17.00
2023-05-02T18:09:08.921Z,13.90
2023-05-02T18:11:35.678Z,15.60
2023-05-02T18:14:05.886Z,15.00
2023-05-02T18:16:34.315Z,14.70
2023-05-02T18:19:02.108Z,14.80
2023-05-02T18:21:29.063Z,15.70
2023-05-02T18:23:56.862Z,14.50
2023-05-02T18:26:23.618Z,13.30
2023-05-02T18:28:53.316Z,14.50
2023-05-02T18:31:20.733Z,13.40
2023-05-02T18:33:49.643Z,14.50
2023-05-02T18:36:20.618Z,15.80
2023-05-02T18:38:47.301Z,13.50
2023-05-02T18:41:13.931Z,12.80
2023-05-02T18:43:40.640Z,13.90
2023-05-02T18:46:07.813Z,14.50
2023-05-02T18:48:35.348Z,14.00
2023-05-02T18:51:02.806Z,14.50
2023-05-02T18:53:29.466Z,13.90
2023-05-02T18:55:56.453Z,15.70
2023-05-02T18:58:23.411Z,12.20
2023-05-02T19:00:50.324Z,12.70
2023-05-02T19:03:16.977Z,14.90
2023-05-02T19:05:43.962Z,14.40
2023-05-02T19:08:10.767Z,11.90
2023-05-02T19:10:37.484Z,12.30
2023-05-02T19:13:04.174Z,12.80
2023-05-02T19:15:30.830Z,11.10
2023-05-02T19:17:58.805Z,11.80
2023-05-02T19:20:27.565Z,14.70
2023-05-02T19:23:07.269Z,11.90
2023-05-02T19:25:41.237Z,13.30
2023-05-02T19:28:08.229Z,11.70
2023-05-02T19:30:35.024Z,11.60
2023-05-02T19:33:01.986Z,13.10
2023-05-02T19:35:29.466Z,14.00
2023-05-02T19:37:56.194Z,14.10
2023-05-02T19:40:22.803Z,11.50
2023-05-02T19:42:49.430Z,12.00
2023-05-02T19:45:16.410Z,13.90
2023-05-02T19:47:44.199Z,11.10
2023-05-02T19:50:11.827Z,14.20
2023-05-02T19:52:41.665Z,11.00
2023-05-02T19:55:09.277Z,13.90
2023-05-02T19:57:36.157Z,10.80
2023-05-02T20:00:03.205Z,12.30
2023-05-02T20:02:31.108Z,13.00
2023-05-02T20:04:59.645Z,10.70
2023-05-02T20:07:26.438Z,12.40
2023-05-02T20:09:53.305Z,10.50
2023-05-02T20:12:19.964Z,11.90
2023-05-02T20:14:46.601Z,10.40
2023-05-02T20:17:13.298Z,10.50
2023-05-02T20:19:39.969Z,10.50
2023-05-02T20:22:06.613Z,10.50
2023-05-02T20:24:33.252Z,10.30
2023-05-02T20:27:00.009Z,10.40
2023-05-02T20:29:26.758Z,11.70
2023-05-02T20:31:54.527Z,10.30
2023-05-02T20:34:22.972Z,11.60
2023-05-02T20:36:49.651Z,10.10
2023-05-02T20:39:20.444Z,12.90
2023-05-02T20:41:49.599Z,12.90
2023-05-02T20:44:22.512Z,10.10
2023-05-02T20:46:51.361Z,10.00
2023-05-02T20:49:18.312Z,10.00
2023-05-02T20:51:44.859Z,11.90
2023-05-02T20:54:11.426Z,10.10
2023-05-02T20:56:38.043Z,9.90
2023-05-02T20:59:05.068Z,9.90
2023-05-02T21:01:33.490Z,10.50
2023-05-02T21:04:00.533Z,10.20
2023-05-02T21:06:27.241Z,10.70
2023-05-02T21:08:56.789Z,12.80
2023-05-02T21:11:23.720Z,13.30
2023-05-02T21:13:50.398Z,12.30
2023-05-02T21:16:17.395Z,9.90
2023-05-02T21:18:44.353Z,9.90
2023-05-02T21:21:10.988Z,9.90
2023-05-02T21:23:37.870Z,9.80
2023-05-02T21:26:04.846Z,9.80
2023-05-02T21:28:31.469Z,10.00
2023-05-02T21:30:58.212Z,11.10
2023-05-02T21:33:25.107Z,11.80
2023-05-02T21:35:57.907Z,9.60
2023-05-02T21:38:25.515Z,9.50
2023-05-02T21:40:52.427Z,9.50
2023-05-02T21:43:19.368Z,9.50
2023-05-02T21:45:46.431Z,11.50
2023-05-02T21:48:13.528Z,12.10
2023-05-02T21:50:40.787Z,11.10
2023-05-02T21:53:07.498Z,9.50
2023-05-02T21:55:36.563Z,11.10
2023-05-02T21:58:06.912Z,12.50
2023-05-02T22:00:33.661Z,9.40
2023-05-02T22:03:07.983Z,9.40
2023-05-02T22:05:36.086Z,10.40
2023-05-02T22:08:03.382Z,9.40
2023-05-02T22:10:30.201Z,11.70
2023-05-02T22:12:57.127Z,9.40
2023-05-02T22:15:23.957Z,9.40
2023-05-02T22:17:50.771Z,9.30
2023-05-02T22:20:17.429Z,9.30
2023-05-02T22:22:44.911Z,11.40
2023-05-02T22:25:11.980Z,11.10
2023-05-02T22:27:38.617Z,9.10
2023-05-02T22:30:06.068Z,9.80
2023-05-02T22:32:32.817Z,9.10
2023-05-02T22:34:59.451Z,9.10
2023-05-02T22:37:26.226Z,11.70
2023-05-02T22:39:53.692Z,8.90
2023-05-02T22:42:20.729Z,9.00
2023-05-02T22:44:54.655Z,9.00
2023-05-02T22:47:21.805Z,9.00
2023-05-02T22:49:49.216Z,9.00
2023-05-02T22:52:18.326Z,9.00
2023-05-02T22:54:44.967Z,9.10
2023-05-02T22:57:11.784Z,9.10
2023-05-02T22:59:38.774Z,9.10
2023-05-02T23:02:05.678Z,9.10
2023-05-02T23:04:33.488Z,11.20
2023-05-02T23:07:00.103Z,9.00
2023-05-02T23:09:26.785Z,8.90
2023-05-02T23:11:53.622Z,8.90
2023-05-02T23:14:21.968Z,11.10
2023-05-02T23:16:53.631Z,8.80
2023-05-02T23:19:20.282Z,8.60
2023-05-02T23:21:49.255Z,11.10
2023-05-02T23:24:16.141Z,9.30
2023-05-02T23:26:42.751Z,8.40
2023-05-02T23:29:09.449Z,11.30
2023-05-02T23:31:36.336Z,8.20
2023-05-02T23:34:03.034Z,8.20
2023-05-02T23:36:30.807Z,8.20
2023-05-02T23:38:57.855Z,8.30
2023-05-02T23:41:26.310Z,10.80
2023-05-02T23:43:53.534Z,9.90
2023-05-02T23:46:20.221Z,8.30
2023-05-02T23:48:46.938Z,8.70
2023-05-02T23:51:13.602Z,8.20
2023-05-02T23:53:40.254Z,10.50
2023-05-02T23:56:07.306Z,8.20
2023-05-02T23:58:33.935Z,8.10
